sensor_id;sensor_type;location;lat;lon;timestamp;temperature;humidity
1091;DHT22;534;48.704;9.122;2023-04-24T04:02:58;11.50;87.20
1091;DHT22;534;48.704;9.122;2023-04-24T04:05:25;11.60;86.10
1091;DHT22;534;48.704;9.122;2023-04-24T04:07:52;11.40;86.60
1091;DHT22;534;48.704;9.122;2023-04-24T04:10:19;11.50;89.20
1091;DHT22;534;48.704;9.122;2023-04-24T04:12:45;11.50;87.00
1091;DHT22;534;48.704;9.122;2023-04-24T04:15:12;11.40;86.90
1091;DHT22;534;48.704;9.122;2023-04-24T04:17:39;11.40;87.20
1091;DHT22;534;48.704;9.122;2023-04-24T04:20:07;11.60;87.40
1091;DHT22;534;48.704;9.122;2023-04-24T04:22:36;11.70;86.80
1091;DHT22;534;48.704;9.122;2023-04-24T04:25:03;11.80;86.20
1091;DHT22;534;48.704;9.122;2023-04-24T04:27:30;12.10;85.60
1091;DHT22;534;48.704;9.122;2023-04-24T04:29:57;12.20;84.50
1091;DHT22;534;48.704;9.122;2023-04-24T04:32:24;12.30;84.70
1091;DHT22;534;48.704;9.122;2023-04-24T04:34:51;12.20;85.10
1091;DHT22;534;48.704;9.122;2023-04-24T04:37:20;12.00;83.90
1091;DHT22;534;48.704;9.122;2023-04-24T04:39:47;11.80;81.90
1091;DHT22;534;48.704;9.122;2023-04-24T04:42:13;11.60;82.80
1091;DHT22;534;48.704;9.122;2023-04-24T04:44:40;11.50;83.20
1091;DHT22;534;48.704;9.122;2023-04-24T04:47:08;11.40;83.30
1091;DHT22;534;48.704;9.122;2023-04-24T04:49:36;11.20;83.60
1091;DHT22;534;48.704;9.122;2023-04-24T04:52:03;11.20;83.90
1091;DHT22;534;48.704;9.122;2023-04-24T04:54:31;11.30;84.70
1091;DHT22;534;48.704;9.122;2023-04-24T04:56:58;11.10;83.50
1091;DHT22;534;48.704;9.122;2023-04-24T04:59:25;11.10;84.50
1091;DHT22;534;48.704;9.122;2023-04-24T05:01:52;11.20;83.80
1091;DHT22;534;48.704;9.122;2023-04-24T05:04:19;11.30;84.00
1091;DHT22;534;48.704;9.122;2023-04-24T05:06:46;11.20;83.40
1091;DHT22;534;48.704;9.122;2023-04-24T05:09:13;11.30;83.30
1091;DHT22;534;48.704;9.122;2023-04-24T05:11:41;11.30;83.70
1091;DHT22;534;48.704;9.122;2023-04-24T05:14:08;11.40;84.20
1091;DHT22;534;48.704;9.122;2023-04-24T05:16:35;11.50;83.50
1091;DHT22;534;48.704;9.122;2023-04-24T05:19:02;11.50;82.40
1091;DHT22;534;48.704;9.122;2023-04-24T05:21:29;11.40;82.70
1091;DHT22;534;48.704;9.122;2023-04-24T05:23:56;11.50;83.10
1091;DHT22;534;48.704;9.122;2023-04-24T05:26:22;11.60;83.40
1091;DHT22;534;48.704;9.122;2023-04-24T05:28:51;11.70;82.40
1091;DHT22;534;48.704;9.122;2023-04-24T05:31:17;11.70;82.30
1091;DHT22;534;48.704;9.122;2023-04-24T05:33:44;11.70;82.40
1091;DHT22;534;48.704;9.122;2023-04-24T05:36:11;11.80;82.10
1091;DHT22;534;48.704;9.122;2023-04-24T05:38:38;11.80;82.50
1091;DHT22;534;48.704;9.122;2023-04-24T05:41:05;11.90;82.00
1091;DHT22;534;48.704;9.122;2023-04-24T05:43:31;12.00;82.40
1091;DHT22;534;48.704;9.122;2023-04-24T05:45:59;11.90;81.90
1091;DHT22;534;48.704;9.122;2023-04-24T05:48:26;12.00;82.60
1091;DHT22;534;48.704;9.122;2023-04-24T05:50:53;11.90;82.00
1091;DHT22;534;48.704;9.122;2023-04-24T05:53:19;11.90;82.60
1091;DHT22;534;48.704;9.122;2023-04-24T05:55:47;11.90;82.20
1091;DHT22;534;48.704;9.122;2023-04-24T05:58:14;11.80;81.80
1091;DHT22;534;48.704;9.122;2023-04-24T06:00:41;11.80;82.30
1091;DHT22;534;48.704;9.122;2023-04-24T06:03:10;11.90;81.80
1091;DHT22;534;48.704;9.122;2023-04-24T06:05:36;11.90;81.90
1091;DHT22;534;48.704;9.122;2023-04-24T06:08:03;12.00;82.10
1091;DHT22;534;48.704;9.122;2023-04-24T06:10:30;12.10;81.20
1091;DHT22;534;48.704;9.122;2023-04-24T06:12:57;12.00;81.90
1091;DHT22;534;48.704;9.122;2023-04-24T06:15:27;12.10;81.90
1091;DHT22;534;48.704;9.122;2023-04-24T06:17:55;12.00;81.30
1091;DHT22;534;48.704;9.122;2023-04-24T06:20:30;12.10;80.30
1091;DHT22;534;48.704;9.122;2023-04-24T06:22:56;12.20;79.80
1091;DHT22;534;48.704;9.122;2023-04-24T06:25:25;12.50;81.30
1091;DHT22;534;48.704;9.122;2023-04-24T06:27:51;12.90;77.90
1091;DHT22;534;48.704;9.122;2023-04-24T06:30:18;13.00;78.30
1091;DHT22;534;48.704;9.122;2023-04-24T06:32:45;13.00;76.40
1091;DHT22;534;48.704;9.122;2023-04-24T06:35:11;13.30;78.30
1091;DHT22;534;48.704;9.122;2023-04-24T06:37:41;13.70;77.70
1091;DHT22;534;48.704;9.122;2023-04-24T06:40:09;13.90;74.60
1091;DHT22;534;48.704;9.122;2023-04-24T06:42:36;14.10;75.00
1091;DHT22;534;48.704;9.122;2023-04-24T06:45:03;14.40;73.90
1091;DHT22;534;48.704;9.122;2023-04-24T06:47:30;14.40;72.00
1091;DHT22;534;48.704;9.122;2023-04-24T06:49:57;14.30;73.40
1091;DHT22;534;48.704;9.122;2023-04-24T06:52:24;14.60;74.70
1091;DHT22;534;48.704;9.122;2023-04-24T06:54:52;15.00;73.00
1091;DHT22;534;48.704;9.122;2023-04-24T06:57:19;15.10;72.10
1091;DHT22;534;48.704;9.122;2023-04-24T06:59:46;15.30;72.30
1091;DHT22;534;48.704;9.122;2023-04-24T07:02:13;15.30;70.70
1091;DHT22;534;48.704;9.122;2023-04-24T07:04:39;15.20;70.40
1091;DHT22;534;48.704;9.122;2023-04-24T07:07:07;15.00;70.50
1091;DHT22;534;48.704;9.122;2023-04-24T07:09:34;14.90;71.70
1091;DHT22;534;48.704;9.122;2023-04-24T07:12:05;14.80;71.00
1091;DHT22;534;48.704;9.122;2023-04-24T07:14:32;14.50;71.00
1091;DHT22;534;48.704;9.122;2023-04-24T07:16:59;14.10;72.00
1091;DHT22;534;48.704;9.122;2023-04-24T07:19:26;13.70;73.90
1091;DHT22;534;48.704;9.122;2023-04-24T07:21:53;13.10;73.40
1091;DHT22;534;48.704;9.122;2023-04-24T07:24:20;12.70;75.80
1091;DHT22;534;48.704;9.122;2023-04-24T07:26:47;12.30;76.40
1091;DHT22;534;48.704;9.122;2023-04-24T07:29:15;12.10;78.30
1091;DHT22;534;48.704;9.122;2023-04-24T07:31:42;11.90;77.90
1091;DHT22;534;48.704;9.122;2023-04-24T07:34:09;11.90;79.10
1091;DHT22;534;48.704;9.122;2023-04-24T07:36:36;12.10;78.40
1091;DHT22;534;48.704;9.122;2023-04-24T07:39:03;12.30;77.50
1091;DHT22;534;48.704;9.122;2023-04-24T07:41:31;12.80;78.40
1091;DHT22;534;48.704;9.122;2023-04-24T07:43:58;13.10;74.50
1091;DHT22;534;48.704;9.122;2023-04-24T07:46:26;13.60;74.90
1091;DHT22;534;48.704;9.122;2023-04-24T07:48:55;13.80;76.00
1091;DHT22;534;48.704;9.122;2023-04-24T07:51:22;14.10;72.70
1091;DHT22;534;48.704;9.122;2023-04-24T07:53:48;14.40;70.70
1091;DHT22;534;48.704;9.122;2023-04-24T07:56:15;14.10;68.50
1091;DHT22;534;48.704;9.122;2023-04-24T07:58:42;13.90;68.70
1091;DHT22;534;48.704;9.122;2023-04-24T08:01:09;13.70;69.30
1091;DHT22;534;48.704;9.122;2023-04-24T08:03:37;13.70;70.10
1091;DHT22;534;48.704;9.122;2023-04-24T08:06:04;13.70;70.20
1091;DHT22;534;48.704;9.122;2023-04-24T08:08:31;13.80;69.70
1091;DHT22;534;48.704;9.122;2023-04-24T08:10:58;14.00;69.90
1091;DHT22;534;48.704;9.122;2023-04-24T08:13:24;14.30;69.70
1091;DHT22;534;48.704;9.122;2023-04-24T08:15:51;14.30;67.40
1091;DHT22;534;48.704;9.122;2023-04-24T08:18:18;14.20;67.00
1091;DHT22;534;48.704;9.122;2023-04-24T08:20:46;14.10;67.40
1091;DHT22;534;48.704;9.122;2023-04-24T08:23:12;14.10;68.20
1091;DHT22;534;48.704;9.122;2023-04-24T08:25:39;13.80;67.10
1091;DHT22;534;48.704;9.122;2023-04-24T08:28:06;13.60;70.20
1091;DHT22;534;48.704;9.122;2023-04-24T08:30:35;13.60;67.90
1091;DHT22;534;48.704;9.122;2023-04-24T08:33:01;13.50;67.80
1091;DHT22;534;48.704;9.122;2023-04-24T08:35:28;13.60;67.60
1091;DHT22;534;48.704;9.122;2023-04-24T08:37:56;13.60;65.30
1091;DHT22;534;48.704;9.122;2023-04-24T08:40:28;13.80;66.70
1091;DHT22;534;48.704;9.122;2023-04-24T08:42:56;14.00;65.80
1091;DHT22;534;48.704;9.122;2023-04-24T08:45:24;14.30;65.70
1091;DHT22;534;48.704;9.122;2023-04-24T08:47:52;14.50;64.40
1091;DHT22;534;48.704;9.122;2023-04-24T08:50:20;14.50;64.30
1091;DHT22;534;48.704;9.122;2023-04-24T08:52:47;14.40;64.30
1091;DHT22;534;48.704;9.122;2023-04-24T08:55:17;14.30;64.40
1091;DHT22;534;48.704;9.122;2023-04-24T08:57:46;13.70;65.20
1091;DHT22;534;48.704;9.122;2023-04-24T09:00:17;13.30;66.50
1091;DHT22;534;48.704;9.122;2023-04-24T09:02:44;13.40;66.30
1091;DHT22;534;48.704;9.122;2023-04-24T09:05:13;13.50;67.10
1091;DHT22;534;48.704;9.122;2023-04-24T09:07:43;13.90;67.20
1091;DHT22;534;48.704;9.122;2023-04-24T09:10:11;14.00;63.30
1091;DHT22;534;48.704;9.122;2023-04-24T09:12:41;14.00;65.20
1091;DHT22;534;48.704;9.122;2023-04-24T09:15:09;14.00;62.80
1091;DHT22;534;48.704;9.122;2023-04-24T09:17:36;14.10;65.80
1091;DHT22;534;48.704;9.122;2023-04-24T09:20:03;14.30;65.90
1091;DHT22;534;48.704;9.122;2023-04-24T09:22:30;14.30;64.00
1091;DHT22;534;48.704;9.122;2023-04-24T09:25:02;13.90;62.50
1091;DHT22;534;48.704;9.122;2023-04-24T09:27:31;13.70;65.10
1091;DHT22;534;48.704;9.122;2023-04-24T09:29:59;13.60;62.40
1091;DHT22;534;48.704;9.122;2023-04-24T09:32:26;13.60;63.50
1091;DHT22;534;48.704;9.122;2023-04-24T09:35:09;13.70;62.70
1091;DHT22;534;48.704;9.122;2023-04-24T09:37:37;13.60;60.70
1091;DHT22;534;48.704;9.122;2023-04-24T09:40:09;13.80;58.80
1091;DHT22;534;48.704;9.122;2023-04-24T09:42:37;13.60;57.60
1091;DHT22;534;48.704;9.122;2023-04-24T09:45:08;13.50;58.50
1091;DHT22;534;48.704;9.122;2023-04-24T09:47:36;13.60;60.10
1091;DHT22;534;48.704;9.122;2023-04-24T09:50:09;13.60;60.70
1091;DHT22;534;48.704;9.122;2023-04-24T09:52:40;13.40;59.20
1091;DHT22;534;48.704;9.122;2023-04-24T09:55:11;13.60;59.30
1091;DHT22;534;48.704;9.122;2023-04-24T09:57:47;13.80;58.10
1091;DHT22;534;48.704;9.122;2023-04-24T10:00:18;13.90;58.90
1091;DHT22;534;48.704;9.122;2023-04-24T10:02:50;14.00;57.80
1091;DHT22;534;48.704;9.122;2023-04-24T10:05:17;14.00;58.40
1091;DHT22;534;48.704;9.122;2023-04-24T10:07:44;13.70;57.50
1091;DHT22;534;48.704;9.122;2023-04-24T10:10:11;13.70;59.30
1091;DHT22;534;48.704;9.122;2023-04-24T10:12:38;13.90;59.10
1091;DHT22;534;48.704;9.122;2023-04-24T10:15:06;14.30;59.10
1091;DHT22;534;48.704;9.122;2023-04-24T10:17:36;14.50;57.10
1091;DHT22;534;48.704;9.122;2023-04-24T10:20:03;14.50;57.10
1091;DHT22;534;48.704;9.122;2023-04-24T10:22:32;14.40;56.60
1091;DHT22;534;48.704;9.122;2023-04-24T10:24:59;14.30;58.40
1091;DHT22;534;48.704;9.122;2023-04-24T10:27:26;14.30;56.10
1091;DHT22;534;48.704;9.122;2023-04-24T10:29:53;14.30;55.90
1091;DHT22;534;48.704;9.122;2023-04-24T10:32:21;13.80;58.40
1091;DHT22;534;48.704;9.122;2023-04-24T10:34:49;14.20;58.30
1091;DHT22;534;48.704;9.122;2023-04-24T10:37:16;14.10;57.20
1091;DHT22;534;48.704;9.122;2023-04-24T10:39:42;13.70;57.50
1091;DHT22;534;48.704;9.122;2023-04-24T10:42:16;13.80;58.90
1091;DHT22;534;48.704;9.122;2023-04-24T10:44:43;13.60;58.40
1091;DHT22;534;48.704;9.122;2023-04-24T10:47:13;13.50;59.90
1091;DHT22;534;48.704;9.122;2023-04-24T10:49:40;13.50;60.10
1091;DHT22;534;48.704;9.122;2023-04-24T10:52:09;13.40;60.40
1091;DHT22;534;48.704;9.122;2023-04-24T10:54:42;13.20;60.50
1091;DHT22;534;48.704;9.122;2023-04-24T10:57:26;13.40;60.60
1091;DHT22;534;48.704;9.122;2023-04-24T11:00:16;13.40;61.00
1091;DHT22;534;48.704;9.122;2023-04-24T11:02:46;13.50;60.10
1091;DHT22;534;48.704;9.122;2023-04-24T11:05:16;13.70;61.00
1091;DHT22;534;48.704;9.122;2023-04-24T11:08:11;13.50;59.80
1091;DHT22;534;48.704;9.122;2023-04-24T11:10:44;13.50;60.00
1091;DHT22;534;48.704;9.122;2023-04-24T11:13:15;13.60;61.30
1091;DHT22;534;48.704;9.122;2023-04-24T11:15:42;13.60;60.40
1091;DHT22;534;48.704;9.122;2023-04-24T11:18:13;13.50;61.50
1091;DHT22;534;48.704;9.122;2023-04-24T11:20:42;13.70;61.70
1091;DHT22;534;48.704;9.122;2023-04-24T11:23:09;13.80;60.40
1091;DHT22;534;48.704;9.122;2023-04-24T11:25:40;14.00;59.50
1091;DHT22;534;48.704;9.122;2023-04-24T11:28:07;14.00;59.30
1091;DHT22;534;48.704;9.122;2023-04-24T11:30:41;14.10;60.00
1091;DHT22;534;48.704;9.122;2023-04-24T11:33:08;14.30;59.40
1091;DHT22;534;48.704;9.122;2023-04-24T11:35:35;14.40;59.00
1091;DHT22;534;48.704;9.122;2023-04-24T11:38:06;14.40;59.80
1091;DHT22;534;48.704;9.122;2023-04-24T11:40:34;14.00;59.70
1091;DHT22;534;48.704;9.122;2023-04-24T11:43:04;13.70;61.80
1091;DHT22;534;48.704;9.122;2023-04-24T11:45:31;13.60;62.10
1091;DHT22;534;48.704;9.122;2023-04-24T11:47:58;13.10;63.10
1091;DHT22;534;48.704;9.122;2023-04-24T11:50:26;13.10;63.30
1091;DHT22;534;48.704;9.122;2023-04-24T11:52:54;12.80;64.10
1091;DHT22;534;48.704;9.122;2023-04-24T11:55:26;12.80;63.60
1091;DHT22;534;48.704;9.122;2023-04-24T11:57:54;13.10;65.00
1091;DHT22;534;48.704;9.122;2023-04-24T12:00:26;13.50;64.10
1091;DHT22;534;48.704;9.122;2023-04-24T12:03:04;13.70;62.30
1091;DHT22;534;48.704;9.122;2023-04-24T12:05:31;14.00;63.10
1091;DHT22;534;48.704;9.122;2023-04-24T12:07:58;14.00;61.50
1091;DHT22;534;48.704;9.122;2023-04-24T12:10:27;14.00;62.50
1091;DHT22;534;48.704;9.122;2023-04-24T12:12:55;14.00;61.40
1091;DHT22;534;48.704;9.122;2023-04-24T12:15:24;13.40;61.80
1091;DHT22;534;48.704;9.122;2023-04-24T12:17:51;13.20;62.40
1091;DHT22;534;48.704;9.122;2023-04-24T12:20:24;13.10;63.00
1091;DHT22;534;48.704;9.122;2023-04-24T12:22:55;13.10;62.50
1091;DHT22;534;48.704;9.122;2023-04-24T12:25:24;13.20;63.30
1091;DHT22;534;48.704;9.122;2023-04-24T12:27:55;13.20;62.10
1091;DHT22;534;48.704;9.122;2023-04-24T12:30:27;13.10;62.50
1091;DHT22;534;48.704;9.122;2023-04-24T12:32:57;13.00;62.20
1091;DHT22;534;48.704;9.122;2023-04-24T12:35:25;12.90;62.60
1091;DHT22;534;48.704;9.122;2023-04-24T12:37:52;13.00;62.90
1091;DHT22;534;48.704;9.122;2023-04-24T12:40:21;13.10;63.50
1091;DHT22;534;48.704;9.122;2023-04-24T12:42:49;13.30;63.30
1091;DHT22;534;48.704;9.122;2023-04-24T12:45:17;13.40;62.90
1091;DHT22;534;48.704;9.122;2023-04-24T12:47:46;13.00;63.60
1091;DHT22;534;48.704;9.122;2023-04-24T12:50:14;12.90;64.30
1091;DHT22;534;48.704;9.122;2023-04-24T12:52:41;12.80;64.10
1091;DHT22;534;48.704;9.122;2023-04-24T12:55:08;12.90;64.70
1091;DHT22;534;48.704;9.122;2023-04-24T12:57:37;12.80;63.90
1091;DHT22;534;48.704;9.122;2023-04-24T13:00:05;12.70;64.90
1091;DHT22;534;48.704;9.122;2023-04-24T13:02:33;12.80;65.10
1091;DHT22;534;48.704;9.122;2023-04-24T13:05:01;12.60;63.90
1091;DHT22;534;48.704;9.122;2023-04-24T13:07:28;12.50;65.10
1091;DHT22;534;48.704;9.122;2023-04-24T13:09:56;12.40;65.90
1091;DHT22;534;48.704;9.122;2023-04-24T13:12:23;12.30;66.50
1091;DHT22;534;48.704;9.122;2023-04-24T13:14:50;12.30;69.50
1091;DHT22;534;48.704;9.122;2023-04-24T13:17:17;12.40;70.40
1091;DHT22;534;48.704;9.122;2023-04-24T13:19:44;12.50;70.70
1091;DHT22;534;48.704;9.122;2023-04-24T13:22:12;12.90;71.90
1091;DHT22;534;48.704;9.122;2023-04-24T13:24:39;13.30;71.00
1091;DHT22;534;48.704;9.122;2023-04-24T13:27:07;13.10;67.30
1091;DHT22;534;48.704;9.122;2023-04-24T13:29:34;13.30;66.30
1091;DHT22;534;48.704;9.122;2023-04-24T13:32:01;13.50;65.10
1091;DHT22;534;48.704;9.122;2023-04-24T13:34:28;13.40;64.10
1091;DHT22;534;48.704;9.122;2023-04-24T13:36:56;13.40;65.60
1091;DHT22;534;48.704;9.122;2023-04-24T13:39:25;13.30;64.30
1091;DHT22;534;48.704;9.122;2023-04-24T13:41:52;13.00;66.80
1091;DHT22;534;48.704;9.122;2023-04-24T13:44:20;13.00;65.50
1091;DHT22;534;48.704;9.122;2023-04-24T13:46:48;12.60;67.40
1091;DHT22;534;48.704;9.122;2023-04-24T13:49:16;12.30;68.70
1091;DHT22;534;48.704;9.122;2023-04-24T13:51:43;12.40;68.90
1091;DHT22;534;48.704;9.122;2023-04-24T13:54:11;12.30;69.80
1091;DHT22;534;48.704;9.122;2023-04-24T13:56:39;12.40;71.30
1091;DHT22;534;48.704;9.122;2023-04-24T13:59:06;12.50;70.90
1091;DHT22;534;48.704;9.122;2023-04-24T14:01:33;12.80;71.20
1091;DHT22;534;48.704;9.122;2023-04-24T14:04:00;13.00;70.10
1091;DHT22;534;48.704;9.122;2023-04-24T14:06:27;13.20;67.60
1091;DHT22;534;48.704;9.122;2023-04-24T14:08:54;13.20;68.20
1091;DHT22;534;48.704;9.122;2023-04-24T14:11:20;13.30;67.00
1091;DHT22;534;48.704;9.122;2023-04-24T14:13:50;13.30;66.40
1091;DHT22;534;48.704;9.122;2023-04-24T14:16:16;13.20;66.30
1091;DHT22;534;48.704;9.122;2023-04-24T14:18:43;13.10;66.90
1091;DHT22;534;48.704;9.122;2023-04-24T14:21:10;13.20;66.80
1091;DHT22;534;48.704;9.122;2023-04-24T14:23:36;13.30;67.30
1091;DHT22;534;48.704;9.122;2023-04-24T14:26:03;13.00;69.10
1091;DHT22;534;48.704;9.122;2023-04-24T14:28:30;12.70;71.90
1091;DHT22;534;48.704;9.122;2023-04-24T14:30:58;12.50;73.50
1091;DHT22;534;48.704;9.122;2023-04-24T14:33:25;12.40;75.10
1091;DHT22;534;48.704;9.122;2023-04-24T14:35:51;12.60;75.70
1091;DHT22;534;48.704;9.122;2023-04-24T14:38:18;13.00;76.30
1091;DHT22;534;48.704;9.122;2023-04-24T14:40:45;13.60;75.30
1091;DHT22;534;48.704;9.122;2023-04-24T14:43:12;14.20;72.50
1091;DHT22;534;48.704;9.122;2023-04-24T14:45:38;14.50;71.00
1091;DHT22;534;48.704;9.122;2023-04-24T14:48:07;14.60;69.70
1091;DHT22;534;48.704;9.122;2023-04-24T14:50:34;14.50;69.20
1091;DHT22;534;48.704;9.122;2023-04-24T14:53:01;14.40;69.80
1091;DHT22;534;48.704;9.122;2023-04-24T14:55:28;14.60;69.30
1091;DHT22;534;48.704;9.122;2023-04-24T14:57:55;15.10;70.70
1091;DHT22;534;48.704;9.122;2023-04-24T15:00:22;15.60;67.80
1091;DHT22;534;48.704;9.122;2023-04-24T15:02:49;16.10;64.30
1091;DHT22;534;48.704;9.122;2023-04-24T15:05:18;16.10;64.10
1091;DHT22;534;48.704;9.122;2023-04-24T15:07:44;15.60;63.30
1091;DHT22;534;48.704;9.122;2023-04-24T15:10:11;15.30;62.90
1091;DHT22;534;48.704;9.122;2023-04-24T15:12:38;15.00;63.40
1091;DHT22;534;48.704;9.122;2023-04-24T15:15:06;14.70;64.00
1091;DHT22;534;48.704;9.122;2023-04-24T15:17:33;14.60;63.70
1091;DHT22;534;48.704;9.122;2023-04-24T15:20:00;14.30;63.60
1091;DHT22;534;48.704;9.122;2023-04-24T15:22:29;14.30;63.50
1091;DHT22;534;48.704;9.122;2023-04-24T15:24:56;14.20;62.60
1091;DHT22;534;48.704;9.122;2023-04-24T15:27:22;14.00;62.80
1091;DHT22;534;48.704;9.122;2023-04-24T15:29:49;14.00;62.70
1091;DHT22;534;48.704;9.122;2023-04-24T15:32:16;13.70;62.70
1091;DHT22;534;48.704;9.122;2023-04-24T15:34:43;13.70;64.40
1091;DHT22;534;48.704;9.122;2023-04-24T15:37:09;13.60;63.10
1091;DHT22;534;48.704;9.122;2023-04-24T15:39:37;13.40;64.80
1091;DHT22;534;48.704;9.122;2023-04-24T15:42:04;13.50;64.30
1091;DHT22;534;48.704;9.122;2023-04-24T15:44:31;13.50;66.00
1091;DHT22;534;48.704;9.122;2023-04-24T15:47:00;13.60;68.00
1091;DHT22;534;48.704;9.122;2023-04-24T15:49:27;13.70;69.20
1091;DHT22;534;48.704;9.122;2023-04-24T15:51:53;13.70;69.00
1091;DHT22;534;48.704;9.122;2023-04-24T15:54:20;13.90;69.50
1091;DHT22;534;48.704;9.122;2023-04-24T15:56:49;13.90;69.50
1091;DHT22;534;48.704;9.122;2023-04-24T15:59:16;14.00;69.30
1091;DHT22;534;48.704;9.122;2023-04-24T16:01:43;14.00;69.00
1091;DHT22;534;48.704;9.122;2023-04-24T16:04:10;14.00;69.20
1091;DHT22;534;48.704;9.122;2023-04-24T16:06:36;14.00;69.40
1091;DHT22;534;48.704;9.122;2023-04-24T16:09:03;13.90;68.40
1091;DHT22;534;48.704;9.122;2023-04-24T16:11:30;13.80;69.50
1091;DHT22;534;48.704;9.122;2023-04-24T16:13:58;14.00;69.70
1091;DHT22;534;48.704;9.122;2023-04-24T16:16:26;14.00;68.20
1091;DHT22;534;48.704;9.122;2023-04-24T16:18:53;14.10;67.80
1091;DHT22;534;48.704;9.122;2023-04-24T16:21:20;14.10;66.30
1091;DHT22;534;48.704;9.122;2023-04-24T16:23:46;14.30;66.00
1091;DHT22;534;48.704;9.122;2023-04-24T16:26:13;14.30;65.40
1091;DHT22;534;48.704;9.122;2023-04-24T16:28:40;14.40;64.90
1091;DHT22;534;48.704;9.122;2023-04-24T16:31:09;14.20;65.60
1091;DHT22;534;48.704;9.122;2023-04-24T16:33:36;14.10;64.40
1091;DHT22;534;48.704;9.122;2023-04-24T16:36:04;14.10;64.70
1091;DHT22;534;48.704;9.122;2023-04-24T16:38:30;14.20;64.40
1091;DHT22;534;48.704;9.122;2023-04-24T16:40:57;14.20;63.40
1091;DHT22;534;48.704;9.122;2023-04-24T16:43:24;14.00;63.40
1091;DHT22;534;48.704;9.122;2023-04-24T16:45:52;13.90;64.60
1091;DHT22;534;48.704;9.122;2023-04-24T16:48:20;13.80;64.50
1091;DHT22;534;48.704;9.122;2023-04-24T16:50:47;13.50;63.20
1091;DHT22;534;48.704;9.122;2023-04-24T16:53:13;13.50;63.70
1091;DHT22;534;48.704;9.122;2023-04-24T16:55:40;13.30;63.30
1091;DHT22;534;48.704;9.122;2023-04-24T16:58:08;13.00;63.20
1091;DHT22;534;48.704;9.122;2023-04-24T17:00:35;13.00;64.90
1091;DHT22;534;48.704;9.122;2023-04-24T17:03:02;13.00;64.60
1091;DHT22;534;48.704;9.122;2023-04-24T17:05:31;13.10;64.70
1091;DHT22;534;48.704;9.122;2023-04-24T17:07:58;13.30;62.90
1091;DHT22;534;48.704;9.122;2023-04-24T17:10:25;13.30;63.50
1091;DHT22;534;48.704;9.122;2023-04-24T17:12:52;13.40;63.10
1091;DHT22;534;48.704;9.122;2023-04-24T17:15:18;13.40;62.80
1091;DHT22;534;48.704;9.122;2023-04-24T17:17:45;13.50;62.00
1091;DHT22;534;48.704;9.122;2023-04-24T17:20:12;13.60;62.10
1091;DHT22;534;48.704;9.122;2023-04-24T17:22:40;13.60;61.10
1091;DHT22;534;48.704;9.122;2023-04-24T17:25:07;13.60;62.40
1091;DHT22;534;48.704;9.122;2023-04-24T17:27:34;13.70;62.40
1091;DHT22;534;48.704;9.122;2023-04-24T17:30:01;13.80;60.50
1091;DHT22;534;48.704;9.122;2023-04-24T17:32:27;13.70;60.90
1091;DHT22;534;48.704;9.122;2023-04-24T17:34:54;13.50;61.30
1091;DHT22;534;48.704;9.122;2023-04-24T17:37:21;13.50;61.80
1091;DHT22;534;48.704;9.122;2023-04-24T17:39:49;13.30;61.30
1091;DHT22;534;48.704;9.122;2023-04-24T17:42:16;13.20;62.50
1091;DHT22;534;48.704;9.122;2023-04-24T17:44:42;13.20;62.60
1091;DHT22;534;48.704;9.122;2023-04-24T17:47:09;13.30;62.90
1091;DHT22;534;48.704;9.122;2023-04-24T17:49:36;13.40;62.60
1091;DHT22;534;48.704;9.122;2023-04-24T17:52:03;13.50;62.60
1091;DHT22;534;48.704;9.122;2023-04-24T17:54:30;13.60;62.30
1091;DHT22;534;48.704;9.122;2023-04-24T17:56:58;13.70;62.00
1091;DHT22;534;48.704;9.122;2023-04-24T17:59:24;13.70;61.40
1091;DHT22;534;48.704;9.122;2023-04-24T18:01:51;13.70;61.70
1091;DHT22;534;48.704;9.122;2023-04-24T18:04:18;13.70;61.70
1091;DHT22;534;48.704;9.122;2023-04-24T18:06:44;13.40;62.30
1091;DHT22;534;48.704;9.122;2023-04-24T18:09:11;13.30;63.20
1091;DHT22;534;48.704;9.122;2023-04-24T18:11:40;13.10;62.80
1091;DHT22;534;48.704;9.122;2023-04-24T18:14:08;13.00;63.50
1091;DHT22;534;48.704;9.122;2023-04-24T18:16:35;13.00;64.10
1091;DHT22;534;48.704;9.122;2023-04-24T18:19:01;12.90;64.70
1091;DHT22;534;48.704;9.122;2023-04-24T18:21:28;12.80;64.90
1091;DHT22;534;48.704;9.122;2023-04-24T18:23:56;12.70;64.90
1091;DHT22;534;48.704;9.122;2023-04-24T18:26:24;12.40;65.70
1091;DHT22;534;48.704;9.122;2023-04-24T18:28:51;12.30;66.30
1091;DHT22;534;48.704;9.122;2023-04-24T18:31:19;12.40;66.30
1091;DHT22;534;48.704;9.122;2023-04-24T18:33:46;12.40;66.00
1091;DHT22;534;48.704;9.122;2023-04-24T18:36:12;12.40;66.50
1091;DHT22;534;48.704;9.122;2023-04-24T18:38:39;12.20;66.50
1091;DHT22;534;48.704;9.122;2023-04-24T18:41:06;12.40;66.70
1091;DHT22;534;48.704;9.122;2023-04-24T18:43:32;12.10;67.10
1091;DHT22;534;48.704;9.122;2023-04-24T18:45:59;11.90;67.70
1091;DHT22;534;48.704;9.122;2023-04-24T18:48:27;11.90;68.10
1091;DHT22;534;48.704;9.122;2023-04-24T18:50:55;11.80;68.20
1091;DHT22;534;48.704;9.122;2023-04-24T18:53:22;11.60;68.70
1091;DHT22;534;48.704;9.122;2023-04-24T18:55:49;11.60;69.30
1091;DHT22;534;48.704;9.122;2023-04-24T18:58:16;11.50;69.40
1091;DHT22;534;48.704;9.122;2023-04-24T19:00:42;11.70;69.40
1091;DHT22;534;48.704;9.122;2023-04-24T19:03:10;11.80;68.80
1091;DHT22;534;48.704;9.122;2023-04-24T19:05:38;11.90;69.10
1091;DHT22;534;48.704;9.122;2023-04-24T19:08:04;11.60;69.60
1091;DHT22;534;48.704;9.122;2023-04-24T19:10:31;11.60;69.80
1091;DHT22;534;48.704;9.122;2023-04-24T19:12:59;11.40;70.60
1091;DHT22;534;48.704;9.122;2023-04-24T19:15:26;11.50;70.90
1091;DHT22;534;48.704;9.122;2023-04-24T19:17:54;11.30;71.50
1091;DHT22;534;48.704;9.122;2023-04-24T19:20:21;11.20;72.10
1091;DHT22;534;48.704;9.122;2023-04-24T19:22:49;11.00;72.30
1091;DHT22;534;48.704;9.122;2023-04-24T19:25:16;10.70;73.20
1091;DHT22;534;48.704;9.122;2023-04-24T19:27:43;10.70;73.90
1091;DHT22;534;48.704;9.122;2023-04-24T19:30:10;10.70;73.80
1091;DHT22;534;48.704;9.122;2023-04-24T19:32:37;10.70;74.20
1091;DHT22;534;48.704;9.122;2023-04-24T19:35:04;10.80;73.70
1091;DHT22;534;48.704;9.122;2023-04-24T19:37:31;10.60;74.20
1091;DHT22;534;48.704;9.122;2023-04-24T19:40:00;10.50;74.30
1091;DHT22;534;48.704;9.122;2023-04-24T19:42:27;10.50;75.00
1091;DHT22;534;48.704;9.122;2023-04-24T19:44:54;10.60;74.60
1091;DHT22;534;48.704;9.122;2023-04-24T19:47:20;10.60;74.60
1091;DHT22;534;48.704;9.122;2023-04-24T19:49:47;10.70;74.20
1091;DHT22;534;48.704;9.122;2023-04-24T19:52:14;10.40;74.70
1091;DHT22;534;48.704;9.122;2023-04-24T19:54:41;10.30;75.50
1091;DHT22;534;48.704;9.122;2023-04-24T19:57:09;10.30;75.40
1091;DHT22;534;48.704;9.122;2023-04-24T19:59:35;10.50;75.10
1091;DHT22;534;48.704;9.122;2023-04-24T20:02:02;10.70;74.70
1091;DHT22;534;48.704;9.122;2023-04-24T20:04:29;10.90;74.20
1091;DHT22;534;48.704;9.122;2023-04-24T20:06:56;11.00;73.90
1091;DHT22;534;48.704;9.122;2023-04-24T20:09:22;11.10;73.70
1091;DHT22;534;48.704;9.122;2023-04-24T20:11:49;11.30;73.30
1091;DHT22;534;48.704;9.122;2023-04-24T20:14:19;11.40;72.90
1091;DHT22;534;48.704;9.122;2023-04-24T20:16:46;11.50;72.40
1091;DHT22;534;48.704;9.122;2023-04-24T20:19:13;11.60;72.00
1091;DHT22;534;48.704;9.122;2023-04-24T20:21:42;11.70;71.80